This is the latest recevied weather packets stored in our database for station/object I3RKE-10. If no packets are shown the sender has not sent any weather packets the latest 10 day(s).
| Time | Temp. | Humidity | Pressure | Rain* | Wind** | Luminosity | Snow |
|---|---|---|---|---|---|---|---|
| 1777934513 | 15° C | 67% | 1009.8 hPa | - | - | - | - |
| 1777933613 | 15° C | 68% | 1009.9 hPa | - | - | - | - |
| 1777932713 | 15° C | 67% | 1009.9 hPa | - | - | - | - |
| 1777931813 | 15.56° C | 66% | 1009.9 hPa | - | - | - | - |
| 1777930913 | 15.56° C | 66% | 1010 hPa | - | - | - | - |
| 1777930013 | 15.56° C | 65% | 1010 hPa | - | - | - | - |
| 1777929113 | 16.11° C | 65% | 1010.1 hPa | - | - | - | - |
| 1777928213 | 16.11° C | 64% | 1010.3 hPa | - | - | - | - |
| 1777927313 | 16.67° C | 63% | 1010.2 hPa | - | - | - | - |
| 1777926412 | 16.67° C | 64% | 1010.2 hPa | - | - | - | - |
| 1777925512 | 17.22° C | 61% | 1010.1 hPa | - | - | - | - |
| 1777924612 | 18.33° C | 57% | 1010.1 hPa | - | - | - | - |
| 1777923712 | 20° C | 50% | 1010 hPa | - | - | - | - |
| 1777922812 | 20° C | 49% | 1009.8 hPa | - | - | - | - |
| 1777921912 | 20.56° C | 48% | 1009.7 hPa | - | - | - | - |
| 1777921012 | 20.56° C | 47% | 1009.5 hPa | - | - | - | - |
| 1777920112 | 21.11° C | 47% | 1009.4 hPa | - | - | - | - |
| 1777919212 | 21.67° C | 46% | 1009.3 hPa | - | - | - | - |
| 1777918312 | 22.22° C | 44% | 1009.1 hPa | - | - | - | - |
| 1777917412 | 23.33° C | 42% | 1008.9 hPa | - | - | - | - |
| 1777916511 | 24.44° C | 36% | 1008.9 hPa | - | - | - | - |
| 1777915611 | 28.89° C | 31% | 1008.9 hPa | - | - | - | - |
| 1777914711 | 32.78° C | 26% | 1009 hPa | - | - | - | - |
| 1777913811 | 34.44° C | 24% | 1009 hPa | - | - | - | - |
| 1777912911 | 33.89° C | 24% | 1009 hPa | - | - | - | - |
* Rain since midnight (hover to see other rain measurements)
** Current wind speed in m/s (hover to see current wind gust speed)